sensor_id;sensor_type;location;lat;lon;timestamp;temperature;humidity
15646;DHT22;7922;43.622;1.476;2022-08-19T00:00:17;19.20;99.90
15646;DHT22;7922;43.622;1.476;2022-08-19T00:02:43;19.10;99.90
15646;DHT22;7922;43.622;1.476;2022-08-19T00:05:11;19.10;99.90
15646;DHT22;7922;43.622;1.476;2022-08-19T00:07:37;19.00;99.90
15646;DHT22;7922;43.622;1.476;2022-08-19T00:10:06;19.00;99.90
15646;DHT22;7922;43.622;1.476;2022-08-19T00:12:32;18.90;99.90
15646;DHT22;7922;43.622;1.476;2022-08-19T00:14:58;18.90;99.90
15646;DHT22;7922;43.622;1.476;2022-08-19T00:17:24;18.80;99.90
15646;DHT22;7922;43.622;1.476;2022-08-19T00:19:50;18.80;99.90
15646;DHT22;7922;43.622;1.476;2022-08-19T00:22:15;18.80;99.90
15646;DHT22;7922;43.622;1.476;2022-08-19T00:24:46;18.80;99.90
15646;DHT22;7922;43.622;1.476;2022-08-19T00:27:12;18.80;99.90
15646;DHT22;7922;43.622;1.476;2022-08-19T00:29:38;18.70;99.90
15646;DHT22;7922;43.622;1.476;2022-08-19T00:32:04;18.70;99.90
15646;DHT22;7922;43.622;1.476;2022-08-19T00:34:30;18.60;99.90
15646;DHT22;7922;43.622;1.476;2022-08-19T00:36:57;18.60;99.90
15646;DHT22;7922;43.622;1.476;2022-08-19T00:39:23;18.60;99.90
15646;DHT22;7922;43.622;1.476;2022-08-19T00:41:50;18.70;99.90
15646;DHT22;7922;43.622;1.476;2022-08-19T00:44:21;18.70;99.90
15646;DHT22;7922;43.622;1.476;2022-08-19T00:46:49;18.80;99.90
15646;DHT22;7922;43.622;1.476;2022-08-19T00:54:57;18.80;99.90
15646;DHT22;7922;43.622;1.476;2022-08-19T00:57:28;18.70;99.90
15646;DHT22;7922;43.622;1.476;2022-08-19T00:59:57;18.70;99.90
15646;DHT22;7922;43.622;1.476;2022-08-19T01:02:25;18.70;99.90
15646;DHT22;7922;43.622;1.476;2022-08-19T01:04:52;18.80;99.90
15646;DHT22;7922;43.622;1.476;2022-08-19T01:07:17;18.80;99.90
15646;DHT22;7922;43.622;1.476;2022-08-19T01:09:43;18.80;99.90
15646;DHT22;7922;43.622;1.476;2022-08-19T01:12:09;18.80;99.90
15646;DHT22;7922;43.622;1.476;2022-08-19T01:14:36;18.80;99.90
15646;DHT22;7922;43.622;1.476;2022-08-19T01:17:03;18.80;99.90
15646;DHT22;7922;43.622;1.476;2022-08-19T01:19:33;18.80;99.90
15646;DHT22;7922;43.622;1.476;2022-08-19T01:24:39;18.80;99.90
15646;DHT22;7922;43.622;1.476;2022-08-19T01:27:06;18.80;99.90
15646;DHT22;7922;43.622;1.476;2022-08-19T01:29:31;18.80;99.90
15646;DHT22;7922;43.622;1.476;2022-08-19T01:31:57;18.80;99.90
15646;DHT22;7922;43.622;1.476;2022-08-19T01:34:23;18.80;99.90
15646;DHT22;7922;43.622;1.476;2022-08-19T01:36:49;18.80;99.90
15646;DHT22;7922;43.622;1.476;2022-08-19T01:39:19;18.70;99.90
15646;DHT22;7922;43.622;1.476;2022-08-19T01:41:46;18.60;99.90
15646;DHT22;7922;43.622;1.476;2022-08-19T01:44:12;18.60;99.90
15646;DHT22;7922;43.622;1.476;2022-08-19T01:46:38;18.50;99.90
15646;DHT22;7922;43.622;1.476;2022-08-19T01:49:05;18.50;99.90
15646;DHT22;7922;43.622;1.476;2022-08-19T01:51:31;18.40;99.90
15646;DHT22;7922;43.622;1.476;2022-08-19T01:53:57;18.50;99.90
15646;DHT22;7922;43.622;1.476;2022-08-19T01:56:24;18.50;99.90
15646;DHT22;7922;43.622;1.476;2022-08-19T01:58:58;18.50;99.90
15646;DHT22;7922;43.622;1.476;2022-08-19T02:01:24;18.50;99.90
15646;DHT22;7922;43.622;1.476;2022-08-19T02:03:50;18.50;99.90
15646;DHT22;7922;43.622;1.476;2022-08-19T02:06:17;18.50;99.90
15646;DHT22;7922;43.622;1.476;2022-08-19T02:08:43;18.50;99.90
15646;DHT22;7922;43.622;1.476;2022-08-19T02:11:21;18.50;99.90
15646;DHT22;7922;43.622;1.476;2022-08-19T02:13:48;18.50;99.90
15646;DHT22;7922;43.622;1.476;2022-08-19T02:16:16;18.50;99.90
15646;DHT22;7922;43.622;1.476;2022-08-19T02:18:42;18.50;99.90
15646;DHT22;7922;43.622;1.476;2022-08-19T02:21:08;18.60;99.90
15646;DHT22;7922;43.622;1.476;2022-08-19T02:23:33;18.60;99.90
15646;DHT22;7922;43.622;1.476;2022-08-19T02:25:59;18.60;99.90
15646;DHT22;7922;43.622;1.476;2022-08-19T02:28:25;18.50;99.90
15646;DHT22;7922;43.622;1.476;2022-08-19T02:30:50;18.60;99.90
15646;DHT22;7922;43.622;1.476;2022-08-19T02:33:16;18.60;99.90
15646;DHT22;7922;43.622;1.476;2022-08-19T02:35:46;18.60;99.90
15646;DHT22;7922;43.622;1.476;2022-08-19T02:38:12;18.60;99.90
15646;DHT22;7922;43.622;1.476;2022-08-19T02:41:02;18.50;99.90
15646;DHT22;7922;43.622;1.476;2022-08-19T02:43:29;18.50;99.90
15646;DHT22;7922;43.622;1.476;2022-08-19T02:45:55;18.50;99.90
15646;DHT22;7922;43.622;1.476;2022-08-19T02:48:23;18.50;99.90
15646;DHT22;7922;43.622;1.476;2022-08-19T02:50:51;18.50;99.90
15646;DHT22;7922;43.622;1.476;2022-08-19T02:53:22;18.50;99.90
15646;DHT22;7922;43.622;1.476;2022-08-19T02:55:49;18.50;99.90
15646;DHT22;7922;43.622;1.476;2022-08-19T02:58:16;18.40;99.90
15646;DHT22;7922;43.622;1.476;2022-08-19T03:00:50;18.40;99.90
15646;DHT22;7922;43.622;1.476;2022-08-19T03:03:17;18.30;99.90
15646;DHT22;7922;43.622;1.476;2022-08-19T03:05:43;18.30;99.90
15646;DHT22;7922;43.622;1.476;2022-08-19T03:08:09;18.40;99.90
15646;DHT22;7922;43.622;1.476;2022-08-19T03:10:42;18.50;99.90
15646;DHT22;7922;43.622;1.476;2022-08-19T03:13:11;18.40;99.90
15646;DHT22;7922;43.622;1.476;2022-08-19T03:15:40;18.40;99.90
15646;DHT22;7922;43.622;1.476;2022-08-19T03:18:05;18.50;99.90
15646;DHT22;7922;43.622;1.476;2022-08-19T03:20:31;18.50;99.90
15646;DHT22;7922;43.622;1.476;2022-08-19T03:22:57;18.50;99.90
15646;DHT22;7922;43.622;1.476;2022-08-19T03:25:22;18.50;99.90
15646;DHT22;7922;43.622;1.476;2022-08-19T03:27:48;18.40;99.90
15646;DHT22;7922;43.622;1.476;2022-08-19T03:30:14;18.30;99.90
15646;DHT22;7922;43.622;1.476;2022-08-19T03:32:40;18.20;99.90
15646;DHT22;7922;43.622;1.476;2022-08-19T03:35:06;18.10;99.90
15646;DHT22;7922;43.622;1.476;2022-08-19T03:37:32;18.10;99.90
15646;DHT22;7922;43.622;1.476;2022-08-19T03:39:57;18.00;99.90
15646;DHT22;7922;43.622;1.476;2022-08-19T03:42:23;18.00;99.90
15646;DHT22;7922;43.622;1.476;2022-08-19T03:44:49;18.00;99.90
15646;DHT22;7922;43.622;1.476;2022-08-19T03:47:14;18.00;99.90
15646;DHT22;7922;43.622;1.476;2022-08-19T03:49:41;18.00;99.90
15646;DHT22;7922;43.622;1.476;2022-08-19T03:52:06;18.00;99.90
15646;DHT22;7922;43.622;1.476;2022-08-19T03:54:34;18.00;99.90
15646;DHT22;7922;43.622;1.476;2022-08-19T03:57:00;18.00;99.90
15646;DHT22;7922;43.622;1.476;2022-08-19T03:59:32;18.00;99.90
15646;DHT22;7922;43.622;1.476;2022-08-19T04:02:00;17.90;99.90
15646;DHT22;7922;43.622;1.476;2022-08-19T04:04:26;17.90;99.90
15646;DHT22;7922;43.622;1.476;2022-08-19T04:06:52;17.90;99.90
15646;DHT22;7922;43.622;1.476;2022-08-19T04:09:19;17.90;99.90
15646;DHT22;7922;43.622;1.476;2022-08-19T04:11:49;17.90;99.90
15646;DHT22;7922;43.622;1.476;2022-08-19T04:14:21;17.90;99.90
15646;DHT22;7922;43.622;1.476;2022-08-19T04:16:48;17.90;99.90
15646;DHT22;7922;43.622;1.476;2022-08-19T04:19:15;18.00;99.90
15646;DHT22;7922;43.622;1.476;2022-08-19T04:21:47;18.10;99.90
15646;DHT22;7922;43.622;1.476;2022-08-19T04:24:14;18.10;99.90
15646;DHT22;7922;43.622;1.476;2022-08-19T04:26:41;18.20;99.90
15646;DHT22;7922;43.622;1.476;2022-08-19T04:29:10;18.20;99.90
15646;DHT22;7922;43.622;1.476;2022-08-19T04:31:36;18.30;99.90
15646;DHT22;7922;43.622;1.476;2022-08-19T04:34:07;18.30;99.90
15646;DHT22;7922;43.622;1.476;2022-08-19T04:36:35;18.30;99.90
15646;DHT22;7922;43.622;1.476;2022-08-19T04:39:10;18.30;99.90
15646;DHT22;7922;43.622;1.476;2022-08-19T04:41:36;18.30;99.90
15646;DHT22;7922;43.622;1.476;2022-08-19T04:44:21;18.30;99.90
15646;DHT22;7922;43.622;1.476;2022-08-19T04:46:48;18.30;99.90
15646;DHT22;7922;43.622;1.476;2022-08-19T04:49:15;18.30;99.90
15646;DHT22;7922;43.622;1.476;2022-08-19T04:51:44;18.30;99.90
15646;DHT22;7922;43.622;1.476;2022-08-19T04:54:11;18.30;99.90
15646;DHT22;7922;43.622;1.476;2022-08-19T04:56:39;18.30;99.90
15646;DHT22;7922;43.622;1.476;2022-08-19T04:59:05;18.30;99.90
15646;DHT22;7922;43.622;1.476;2022-08-19T05:01:32;18.30;99.90
15646;DHT22;7922;43.622;1.476;2022-08-19T05:04:00;18.20;99.90
15646;DHT22;7922;43.622;1.476;2022-08-19T05:06:27;18.20;99.90
15646;DHT22;7922;43.622;1.476;2022-08-19T05:08:54;18.20;99.90
15646;DHT22;7922;43.622;1.476;2022-08-19T05:11:23;18.20;99.90
15646;DHT22;7922;43.622;1.476;2022-08-19T05:13:50;18.20;99.90
15646;DHT22;7922;43.622;1.476;2022-08-19T05:16:18;18.20;99.90
15646;DHT22;7922;43.622;1.476;2022-08-19T05:18:45;18.20;99.90
15646;DHT22;7922;43.622;1.476;2022-08-19T05:21:29;18.30;99.90
15646;DHT22;7922;43.622;1.476;2022-08-19T05:24:14;18.30;99.90
15646;DHT22;7922;43.622;1.476;2022-08-19T05:26:43;18.20;99.90
15646;DHT22;7922;43.622;1.476;2022-08-19T05:29:12;18.20;99.90
15646;DHT22;7922;43.622;1.476;2022-08-19T05:31:38;18.20;99.90
15646;DHT22;7922;43.622;1.476;2022-08-19T05:34:05;18.20;99.90
15646;DHT22;7922;43.622;1.476;2022-08-19T05:36:39;18.20;99.90
15646;DHT22;7922;43.622;1.476;2022-08-19T05:39:07;18.30;99.90
15646;DHT22;7922;43.622;1.476;2022-08-19T05:41:33;18.30;99.90
15646;DHT22;7922;43.622;1.476;2022-08-19T05:44:02;18.40;99.90
15646;DHT22;7922;43.622;1.476;2022-08-19T05:46:28;18.50;99.90
15646;DHT22;7922;43.622;1.476;2022-08-19T05:48:55;18.50;99.90
15646;DHT22;7922;43.622;1.476;2022-08-19T05:51:22;18.60;99.90
15646;DHT22;7922;43.622;1.476;2022-08-19T05:53:48;18.70;99.90
15646;DHT22;7922;43.622;1.476;2022-08-19T05:56:15;18.70;99.90
15646;DHT22;7922;43.622;1.476;2022-08-19T05:58:43;18.80;99.90
15646;DHT22;7922;43.622;1.476;2022-08-19T06:01:12;18.80;99.90
15646;DHT22;7922;43.622;1.476;2022-08-19T06:03:38;18.80;99.90
15646;DHT22;7922;43.622;1.476;2022-08-19T06:06:06;18.90;99.90
15646;DHT22;7922;43.622;1.476;2022-08-19T06:08:33;19.00;99.90
15646;DHT22;7922;43.622;1.476;2022-08-19T06:14:09;19.10;99.90
15646;DHT22;7922;43.622;1.476;2022-08-19T06:16:37;19.10;99.90
15646;DHT22;7922;43.622;1.476;2022-08-19T06:19:06;19.00;99.90
15646;DHT22;7922;43.622;1.476;2022-08-19T06:21:34;19.00;99.90
15646;DHT22;7922;43.622;1.476;2022-08-19T06:24:01;19.00;99.90
15646;DHT22;7922;43.622;1.476;2022-08-19T06:26:27;19.10;99.90
15646;DHT22;7922;43.622;1.476;2022-08-19T06:28:53;19.10;99.90
15646;DHT22;7922;43.622;1.476;2022-08-19T06:31:24;19.20;99.90
15646;DHT22;7922;43.622;1.476;2022-08-19T06:33:51;19.30;99.90
15646;DHT22;7922;43.622;1.476;2022-08-19T06:36:29;19.40;99.90
15646;DHT22;7922;43.622;1.476;2022-08-19T06:39:03;19.40;99.90
15646;DHT22;7922;43.622;1.476;2022-08-19T06:41:29;19.50;99.90
15646;DHT22;7922;43.622;1.476;2022-08-19T06:43:56;19.60;99.90
15646;DHT22;7922;43.622;1.476;2022-08-19T06:46:26;19.60;99.90
15646;DHT22;7922;43.622;1.476;2022-08-19T06:48:55;19.70;99.90
15646;DHT22;7922;43.622;1.476;2022-08-19T06:51:24;19.40;99.90
15646;DHT22;7922;43.622;1.476;2022-08-19T06:53:53;19.90;99.90
15646;DHT22;7922;43.622;1.476;2022-08-19T06:56:22;19.90;99.90
15646;DHT22;7922;43.622;1.476;2022-08-19T06:58:51;20.00;99.90
15646;DHT22;7922;43.622;1.476;2022-08-19T07:01:19;20.00;99.90
15646;DHT22;7922;43.622;1.476;2022-08-19T07:03:46;20.00;99.90
15646;DHT22;7922;43.622;1.476;2022-08-19T07:06:17;19.90;99.90
15646;DHT22;7922;43.622;1.476;2022-08-19T07:08:44;19.80;99.90
15646;DHT22;7922;43.622;1.476;2022-08-19T07:11:14;19.70;99.90
15646;DHT22;7922;43.622;1.476;2022-08-19T07:13:40;19.80;99.90
15646;DHT22;7922;43.622;1.476;2022-08-19T07:16:13;19.90;99.90
15646;DHT22;7922;43.622;1.476;2022-08-19T07:18:39;20.10;99.90
15646;DHT22;7922;43.622;1.476;2022-08-19T07:21:07;20.20;99.90
15646;DHT22;7922;43.622;1.476;2022-08-19T07:23:33;20.20;99.90
15646;DHT22;7922;43.622;1.476;2022-08-19T07:26:08;20.10;99.90
15646;DHT22;7922;43.622;1.476;2022-08-19T07:28:34;20.10;99.90
15646;DHT22;7922;43.622;1.476;2022-08-19T07:31:07;20.10;99.90
15646;DHT22;7922;43.622;1.476;2022-08-19T07:33:34;20.00;99.90
15646;DHT22;7922;43.622;1.476;2022-08-19T07:36:05;20.10;99.90
15646;DHT22;7922;43.622;1.476;2022-08-19T07:38:32;20.10;99.90
15646;DHT22;7922;43.622;1.476;2022-08-19T07:40:59;20.20;99.90
15646;DHT22;7922;43.622;1.476;2022-08-19T07:43:26;20.30;99.90
15646;DHT22;7922;43.622;1.476;2022-08-19T07:45:54;20.40;99.90
15646;DHT22;7922;43.622;1.476;2022-08-19T07:48:24;20.50;99.90
15646;DHT22;7922;43.622;1.476;2022-08-19T07:50:56;20.40;99.90
15646;DHT22;7922;43.622;1.476;2022-08-19T07:53:23;20.30;99.90
15646;DHT22;7922;43.622;1.476;2022-08-19T07:55:50;20.20;99.90
15646;DHT22;7922;43.622;1.476;2022-08-19T07:58:22;20.30;99.90
15646;DHT22;7922;43.622;1.476;2022-08-19T08:00:50;20.40;99.90
15646;DHT22;7922;43.622;1.476;2022-08-19T08:03:19;20.30;99.90
15646;DHT22;7922;43.622;1.476;2022-08-19T08:05:45;20.40;99.90
15646;DHT22;7922;43.622;1.476;2022-08-19T08:08:30;20.50;99.90
15646;DHT22;7922;43.622;1.476;2022-08-19T08:11:04;20.60;99.90
15646;DHT22;7922;43.622;1.476;2022-08-19T08:13:30;20.70;99.90
15646;DHT22;7922;43.622;1.476;2022-08-19T08:15:59;20.50;99.90
15646;DHT22;7922;43.622;1.476;2022-08-19T08:18:25;20.40;99.90
15646;DHT22;7922;43.622;1.476;2022-08-19T08:20:50;20.50;99.90
15646;DHT22;7922;43.622;1.476;2022-08-19T08:23:16;20.60;99.90
15646;DHT22;7922;43.622;1.476;2022-08-19T08:25:53;20.70;99.90
15646;DHT22;7922;43.622;1.476;2022-08-19T08:28:26;21.10;99.90
15646;DHT22;7922;43.622;1.476;2022-08-19T08:30:53;21.30;99.90
15646;DHT22;7922;43.622;1.476;2022-08-19T08:33:23;21.50;99.90
15646;DHT22;7922;43.622;1.476;2022-08-19T08:35:49;21.40;99.90
15646;DHT22;7922;43.622;1.476;2022-08-19T08:38:15;21.40;99.90
15646;DHT22;7922;43.622;1.476;2022-08-19T08:40:52;21.30;99.90
15646;DHT22;7922;43.622;1.476;2022-08-19T08:43:27;21.20;99.90
15646;DHT22;7922;43.622;1.476;2022-08-19T08:46:10;21.10;99.90
15646;DHT22;7922;43.622;1.476;2022-08-19T08:49:06;21.40;99.90
15646;DHT22;7922;43.622;1.476;2022-08-19T08:51:37;21.60;99.90
15646;DHT22;7922;43.622;1.476;2022-08-19T08:54:11;21.80;99.90
15646;DHT22;7922;43.622;1.476;2022-08-19T08:56:41;21.90;99.90
15646;DHT22;7922;43.622;1.476;2022-08-19T08:59:29;21.90;99.90
15646;DHT22;7922;43.622;1.476;2022-08-19T09:01:59;21.70;99.90
15646;DHT22;7922;43.622;1.476;2022-08-19T09:04:25;21.40;99.90
15646;DHT22;7922;43.622;1.476;2022-08-19T09:09:49;21.30;99.90
15646;DHT22;7922;43.622;1.476;2022-08-19T09:15:15;21.10;99.90
15646;DHT22;7922;43.622;1.476;2022-08-19T09:17:42;21.10;99.90
15646;DHT22;7922;43.622;1.476;2022-08-19T09:20:21;21.10;99.90
15646;DHT22;7922;43.622;1.476;2022-08-19T09:22:48;21.20;99.90
15646;DHT22;7922;43.622;1.476;2022-08-19T09:25:20;21.60;99.90
15646;DHT22;7922;43.622;1.476;2022-08-19T09:27:49;21.90;99.90
15646;DHT22;7922;43.622;1.476;2022-08-19T09:30:27;22.20;99.90
15646;DHT22;7922;43.622;1.476;2022-08-19T09:32:53;22.40;99.90
15646;DHT22;7922;43.622;1.476;2022-08-19T09:35:22;22.30;99.90
15646;DHT22;7922;43.622;1.476;2022-08-19T09:37:48;22.60;99.90
15646;DHT22;7922;43.622;1.476;2022-08-19T09:40:16;22.70;99.90
15646;DHT22;7922;43.622;1.476;2022-08-19T09:42:43;22.40;99.90
15646;DHT22;7922;43.622;1.476;2022-08-19T09:45:12;22.30;99.90
15646;DHT22;7922;43.622;1.476;2022-08-19T09:47:37;22.20;99.90
15646;DHT22;7922;43.622;1.476;2022-08-19T09:50:09;22.00;99.90
15646;DHT22;7922;43.622;1.476;2022-08-19T09:52:35;22.00;99.90
15646;DHT22;7922;43.622;1.476;2022-08-19T09:55:04;22.00;99.90
15646;DHT22;7922;43.622;1.476;2022-08-19T09:57:30;22.00;99.90
15646;DHT22;7922;43.622;1.476;2022-08-19T09:59:55;22.10;99.90
15646;DHT22;7922;43.622;1.476;2022-08-19T10:02:21;22.30;99.90
15646;DHT22;7922;43.622;1.476;2022-08-19T10:04:47;22.60;99.90
15646;DHT22;7922;43.622;1.476;2022-08-19T10:07:31;22.70;99.90
15646;DHT22;7922;43.622;1.476;2022-08-19T10:09:56;22.90;99.90
15646;DHT22;7922;43.622;1.476;2022-08-19T10:12:22;23.10;99.90
15646;DHT22;7922;43.622;1.476;2022-08-19T10:14:48;22.80;99.90
15646;DHT22;7922;43.622;1.476;2022-08-19T10:17:16;22.90;99.90
15646;DHT22;7922;43.622;1.476;2022-08-19T10:19:43;22.80;99.90
15646;DHT22;7922;43.622;1.476;2022-08-19T10:22:09;23.00;99.90
15646;DHT22;7922;43.622;1.476;2022-08-19T10:24:36;22.90;99.90
15646;DHT22;7922;43.622;1.476;2022-08-19T10:27:02;23.10;99.90
15646;DHT22;7922;43.622;1.476;2022-08-19T10:29:30;23.10;99.90
15646;DHT22;7922;43.622;1.476;2022-08-19T10:31:57;22.80;99.90
15646;DHT22;7922;43.622;1.476;2022-08-19T10:34:24;22.90;99.90
15646;DHT22;7922;43.622;1.476;2022-08-19T10:36:50;23.10;99.90
15646;DHT22;7922;43.622;1.476;2022-08-19T10:39:16;23.60;99.90
15646;DHT22;7922;43.622;1.476;2022-08-19T10:41:42;24.10;99.90
15646;DHT22;7922;43.622;1.476;2022-08-19T10:44:11;24.80;99.90
15646;DHT22;7922;43.622;1.476;2022-08-19T10:46:41;24.20;99.90
15646;DHT22;7922;43.622;1.476;2022-08-19T10:49:08;24.00;99.90
15646;DHT22;7922;43.622;1.476;2022-08-19T10:51:34;23.60;99.90
15646;DHT22;7922;43.622;1.476;2022-08-19T10:54:18;23.60;99.90
15646;DHT22;7922;43.622;1.476;2022-08-19T10:56:44;23.70;99.90
15646;DHT22;7922;43.622;1.476;2022-08-19T10:59:22;23.50;99.90
15646;DHT22;7922;43.622;1.476;2022-08-19T11:01:48;23.40;99.90
15646;DHT22;7922;43.622;1.476;2022-08-19T11:04:15;23.60;99.90
15646;DHT22;7922;43.622;1.476;2022-08-19T11:06:46;24.20;99.90
15646;DHT22;7922;43.622;1.476;2022-08-19T11:09:15;24.20;99.90
15646;DHT22;7922;43.622;1.476;2022-08-19T11:11:42;24.20;99.90
15646;DHT22;7922;43.622;1.476;2022-08-19T11:14:10;24.20;99.90
15646;DHT22;7922;43.622;1.476;2022-08-19T11:16:37;24.30;99.90
15646;DHT22;7922;43.622;1.476;2022-08-19T11:19:05;24.60;99.90
15646;DHT22;7922;43.622;1.476;2022-08-19T11:21:36;24.50;99.90
15646;DHT22;7922;43.622;1.476;2022-08-19T11:24:08;24.20;99.90
15646;DHT22;7922;43.622;1.476;2022-08-19T11:26:35;23.80;99.90
15646;DHT22;7922;43.622;1.476;2022-08-19T11:29:02;24.00;99.90
15646;DHT22;7922;43.622;1.476;2022-08-19T11:31:31;24.20;99.90
15646;DHT22;7922;43.622;1.476;2022-08-19T11:33:58;24.00;99.90
15646;DHT22;7922;43.622;1.476;2022-08-19T11:36:25;23.60;99.90
15646;DHT22;7922;43.622;1.476;2022-08-19T11:38:51;23.80;99.90
15646;DHT22;7922;43.622;1.476;2022-08-19T11:41:19;24.20;99.90
15646;DHT22;7922;43.622;1.476;2022-08-19T11:43:45;24.50;99.90
15646;DHT22;7922;43.622;1.476;2022-08-19T11:46:12;25.00;99.90
15646;DHT22;7922;43.622;1.476;2022-08-19T11:48:39;25.10;99.90
15646;DHT22;7922;43.622;1.476;2022-08-19T11:51:08;25.00;99.90
15646;DHT22;7922;43.622;1.476;2022-08-19T11:53:35;24.90;99.90
15646;DHT22;7922;43.622;1.476;2022-08-19T11:56:02;24.80;99.90
15646;DHT22;7922;43.622;1.476;2022-08-19T11:58:28;24.50;99.90
15646;DHT22;7922;43.622;1.476;2022-08-19T12:00:54;24.70;99.90
15646;DHT22;7922;43.622;1.476;2022-08-19T12:03:20;25.00;99.90
15646;DHT22;7922;43.622;1.476;2022-08-19T12:05:46;24.80;99.90
15646;DHT22;7922;43.622;1.476;2022-08-19T12:08:13;24.70;99.90
15646;DHT22;7922;43.622;1.476;2022-08-19T12:10:40;24.90;99.90
15646;DHT22;7922;43.622;1.476;2022-08-19T12:13:08;25.10;99.90
15646;DHT22;7922;43.622;1.476;2022-08-19T12:15:39;25.20;99.90
15646;DHT22;7922;43.622;1.476;2022-08-19T12:18:08;25.40;99.90
15646;DHT22;7922;43.622;1.476;2022-08-19T12:20:36;25.40;99.90
15646;DHT22;7922;43.622;1.476;2022-08-19T12:23:04;25.50;99.90
15646;DHT22;7922;43.622;1.476;2022-08-19T12:25:30;25.60;99.90
15646;DHT22;7922;43.622;1.476;2022-08-19T12:27:57;25.90;99.90
15646;DHT22;7922;43.622;1.476;2022-08-19T12:30:24;26.30;99.90
15646;DHT22;7922;43.622;1.476;2022-08-19T12:32:50;26.50;99.90
15646;DHT22;7922;43.622;1.476;2022-08-19T12:35:17;26.30;99.90
15646;DHT22;7922;43.622;1.476;2022-08-19T12:37:46;26.00;99.90
15646;DHT22;7922;43.622;1.476;2022-08-19T12:40:11;25.50;99.90
15646;DHT22;7922;43.622;1.476;2022-08-19T12:42:39;25.60;99.90
15646;DHT22;7922;43.622;1.476;2022-08-19T12:45:08;25.90;99.90
15646;DHT22;7922;43.622;1.476;2022-08-19T12:47:34;26.20;99.90
15646;DHT22;7922;43.622;1.476;2022-08-19T12:50:01;26.20;99.90
15646;DHT22;7922;43.622;1.476;2022-08-19T12:52:26;26.00;99.90
15646;DHT22;7922;43.622;1.476;2022-08-19T12:54:54;25.90;99.90
15646;DHT22;7922;43.622;1.476;2022-08-19T12:57:22;25.70;99.90
15646;DHT22;7922;43.622;1.476;2022-08-19T12:59:52;25.50;99.90
15646;DHT22;7922;43.622;1.476;2022-08-19T13:02:21;25.30;99.90
15646;DHT22;7922;43.622;1.476;2022-08-19T13:04:47;25.50;99.90
15646;DHT22;7922;43.622;1.476;2022-08-19T13:07:13;25.90;99.90
15646;DHT22;7922;43.622;1.476;2022-08-19T13:09:39;26.10;99.90
15646;DHT22;7922;43.622;1.476;2022-08-19T13:12:08;25.80;99.90
15646;DHT22;7922;43.622;1.476;2022-08-19T13:14:39;26.10;99.90
15646;DHT22;7922;43.622;1.476;2022-08-19T13:17:06;26.30;99.90
15646;DHT22;7922;43.622;1.476;2022-08-19T13:19:31;26.20;99.90
15646;DHT22;7922;43.622;1.476;2022-08-19T13:21:57;25.80;99.90
15646;DHT22;7922;43.622;1.476;2022-08-19T13:24:24;25.80;99.90
15646;DHT22;7922;43.622;1.476;2022-08-19T13:26:50;25.80;99.90
15646;DHT22;7922;43.622;1.476;2022-08-19T13:29:15;26.00;99.90
15646;DHT22;7922;43.622;1.476;2022-08-19T13:31:59;25.90;99.90
15646;DHT22;7922;43.622;1.476;2022-08-19T13:34:43;25.80;99.90
15646;DHT22;7922;43.622;1.476;2022-08-19T13:37:11;25.70;99.90
15646;DHT22;7922;43.622;1.476;2022-08-19T13:39:37;25.90;99.90
15646;DHT22;7922;43.622;1.476;2022-08-19T13:42:03;25.80;99.90
15646;DHT22;7922;43.622;1.476;2022-08-19T13:44:30;26.30;99.90
15646;DHT22;7922;43.622;1.476;2022-08-19T13:47:05;26.30;99.90
15646;DHT22;7922;43.622;1.476;2022-08-19T13:49:33;26.50;99.90
15646;DHT22;7922;43.622;1.476;2022-08-19T13:51:59;26.80;99.90
15646;DHT22;7922;43.622;1.476;2022-08-19T13:54:25;27.00;99.90
15646;DHT22;7922;43.622;1.476;2022-08-19T13:56:52;27.10;99.90
15646;DHT22;7922;43.622;1.476;2022-08-19T13:59:17;26.70;99.90
15646;DHT22;7922;43.622;1.476;2022-08-19T14:01:43;26.40;99.90
15646;DHT22;7922;43.622;1.476;2022-08-19T14:04:09;26.30;99.90
15646;DHT22;7922;43.622;1.476;2022-08-19T14:06:35;26.30;99.90
15646;DHT22;7922;43.622;1.476;2022-08-19T14:09:00;26.30;99.90
15646;DHT22;7922;43.622;1.476;2022-08-19T14:11:28;26.50;99.90
15646;DHT22;7922;43.622;1.476;2022-08-19T14:13:53;26.80;99.90
15646;DHT22;7922;43.622;1.476;2022-08-19T14:16:19;26.90;99.90
15646;DHT22;7922;43.622;1.476;2022-08-19T14:18:47;26.90;99.90
15646;DHT22;7922;43.622;1.476;2022-08-19T14:21:19;27.10;99.90
15646;DHT22;7922;43.622;1.476;2022-08-19T14:23:45;27.20;99.90
15646;DHT22;7922;43.622;1.476;2022-08-19T14:26:14;27.40;99.90
15646;DHT22;7922;43.622;1.476;2022-08-19T14:28:41;27.70;99.90
15646;DHT22;7922;43.622;1.476;2022-08-19T14:31:08;27.70;99.90
15646;DHT22;7922;43.622;1.476;2022-08-19T14:33:34;27.50;99.90
15646;DHT22;7922;43.622;1.476;2022-08-19T14:36:00;27.60;99.90
15646;DHT22;7922;43.622;1.476;2022-08-19T14:38:26;27.60;99.90
15646;DHT22;7922;43.622;1.476;2022-08-19T14:40:52;27.70;99.90
15646;DHT22;7922;43.622;1.476;2022-08-19T14:43:18;27.40;99.90
15646;DHT22;7922;43.622;1.476;2022-08-19T14:45:44;27.60;99.90
15646;DHT22;7922;43.622;1.476;2022-08-19T14:48:09;27.80;99.90
15646;DHT22;7922;43.622;1.476;2022-08-19T14:50:36;27.50;99.90
15646;DHT22;7922;43.622;1.476;2022-08-19T14:53:07;27.40;99.90
15646;DHT22;7922;43.622;1.476;2022-08-19T14:55:34;27.50;99.90
15646;DHT22;7922;43.622;1.476;2022-08-19T14:58:00;27.60;99.90
15646;DHT22;7922;43.622;1.476;2022-08-19T15:00:27;27.90;99.90
15646;DHT22;7922;43.622;1.476;2022-08-19T15:02:53;27.70;99.90
15646;DHT22;7922;43.622;1.476;2022-08-19T15:05:20;27.50;99.90
15646;DHT22;7922;43.622;1.476;2022-08-19T15:07:46;27.20;99.90
15646;DHT22;7922;43.622;1.476;2022-08-19T15:10:13;26.80;99.90
15646;DHT22;7922;43.622;1.476;2022-08-19T15:12:40;26.70;99.90
15646;DHT22;7922;43.622;1.476;2022-08-19T15:15:11;26.70;99.90
15646;DHT22;7922;43.622;1.476;2022-08-19T15:17:38;26.60;99.90
15646;DHT22;7922;43.622;1.476;2022-08-19T15:20:06;26.70;99.90
15646;DHT22;7922;43.622;1.476;2022-08-19T15:22:33;26.80;99.90
15646;DHT22;7922;43.622;1.476;2022-08-19T15:24:59;26.70;99.90
15646;DHT22;7922;43.622;1.476;2022-08-19T15:27:26;26.40;99.90
15646;DHT22;7922;43.622;1.476;2022-08-19T15:29:52;26.30;99.90
15646;DHT22;7922;43.622;1.476;2022-08-19T15:32:18;26.30;99.90
15646;DHT22;7922;43.622;1.476;2022-08-19T15:34:44;26.60;99.90
15646;DHT22;7922;43.622;1.476;2022-08-19T15:37:10;26.80;99.90
15646;DHT22;7922;43.622;1.476;2022-08-19T15:39:36;27.10;99.90
15646;DHT22;7922;43.622;1.476;2022-08-19T15:42:02;27.10;99.90
15646;DHT22;7922;43.622;1.476;2022-08-19T15:44:28;27.00;99.90
15646;DHT22;7922;43.622;1.476;2022-08-19T15:46:54;26.90;99.90
15646;DHT22;7922;43.622;1.476;2022-08-19T15:49:20;27.10;99.90
15646;DHT22;7922;43.622;1.476;2022-08-19T15:51:48;27.10;99.90
15646;DHT22;7922;43.622;1.476;2022-08-19T15:54:17;26.90;99.90
15646;DHT22;7922;43.622;1.476;2022-08-19T15:56:43;26.80;99.90
15646;DHT22;7922;43.622;1.476;2022-08-19T15:59:28;26.80;99.90
15646;DHT22;7922;43.622;1.476;2022-08-19T16:02:12;26.80;99.90
15646;DHT22;7922;43.622;1.476;2022-08-19T16:04:56;26.70;99.90
15646;DHT22;7922;43.622;1.476;2022-08-19T16:07:40;26.80;99.90